sensor_id;sensor_type;location;lat;lon;timestamp;P1;durP1;ratioP1;P2;durP2;ratioP2
39264;SDS011;42646;51.910;7.724;2022-10-15T00:00:15;19.00;;;13.15;;
39264;SDS011;42646;51.910;7.724;2022-10-15T00:02:43;20.30;;;13.95;;
39264;SDS011;42646;51.910;7.724;2022-10-15T00:05:11;20.25;;;14.80;;
39264;SDS011;42646;51.910;7.724;2022-10-15T00:07:40;20.02;;;14.32;;
39264;SDS011;42646;51.910;7.724;2022-10-15T00:10:08;24.98;;;16.02;;
39264;SDS011;42646;51.910;7.724;2022-10-15T00:12:36;24.83;;;16.27;;
39264;SDS011;42646;51.910;7.724;2022-10-15T00:15:04;27.77;;;17.83;;
39264;SDS011;42646;51.910;7.724;2022-10-15T00:17:32;24.45;;;16.27;;
39264;SDS011;42646;51.910;7.724;2022-10-15T00:20:01;26.95;;;17.20;;
39264;SDS011;42646;51.910;7.724;2022-10-15T00:22:30;27.55;;;17.35;;
39264;SDS011;42646;51.910;7.724;2022-10-15T00:24:59;26.48;;;17.25;;
39264;SDS011;42646;51.910;7.724;2022-10-15T00:27:26;27.58;;;17.73;;
39264;SDS011;42646;51.910;7.724;2022-10-15T00:29:54;30.33;;;18.30;;
39264;SDS011;42646;51.910;7.724;2022-10-15T00:32:24;28.50;;;17.58;;
39264;SDS011;42646;51.910;7.724;2022-10-15T00:34:51;29.38;;;18.33;;
39264;SDS011;42646;51.910;7.724;2022-10-15T00:37:19;27.45;;;17.73;;
39264;SDS011;42646;51.910;7.724;2022-10-15T00:39:47;27.60;;;17.58;;
39264;SDS011;42646;51.910;7.724;2022-10-15T00:42:16;28.77;;;18.60;;
39264;SDS011;42646;51.910;7.724;2022-10-15T00:44:49;29.27;;;18.05;;
39264;SDS011;42646;51.910;7.724;2022-10-15T00:47:22;31.95;;;19.75;;
39264;SDS011;42646;51.910;7.724;2022-10-15T00:49:54;32.90;;;20.48;;
39264;SDS011;42646;51.910;7.724;2022-10-15T00:52:28;29.95;;;18.73;;
39264;SDS011;42646;51.910;7.724;2022-10-15T00:55:02;31.98;;;19.75;;
39264;SDS011;42646;51.910;7.724;2022-10-15T00:57:34;30.85;;;19.42;;
39264;SDS011;42646;51.910;7.724;2022-10-15T01:00:04;30.95;;;18.77;;
39264;SDS011;42646;51.910;7.724;2022-10-15T01:02:36;30.58;;;18.45;;
39264;SDS011;42646;51.910;7.724;2022-10-15T01:05:04;32.03;;;19.60;;
39264;SDS011;42646;51.910;7.724;2022-10-15T01:07:33;30.20;;;19.40;;
39264;SDS011;42646;51.910;7.724;2022-10-15T01:10:02;33.88;;;20.80;;
39264;SDS011;42646;51.910;7.724;2022-10-15T01:12:36;33.95;;;21.02;;
39264;SDS011;42646;51.910;7.724;2022-10-15T01:15:13;32.83;;;20.70;;
39264;SDS011;42646;51.910;7.724;2022-10-15T01:17:45;34.63;;;20.67;;
39264;SDS011;42646;51.910;7.724;2022-10-15T01:26:21;30.83;;;19.38;;
39264;SDS011;42646;51.910;7.724;2022-10-15T01:29:12;29.55;;;19.42;;
39264;SDS011;42646;51.910;7.724;2022-10-15T01:31:48;32.67;;;20.23;;
39264;SDS011;42646;51.910;7.724;2022-10-15T01:34:26;30.80;;;19.23;;
39264;SDS011;42646;51.910;7.724;2022-10-15T01:37:03;31.63;;;20.70;;
39264;SDS011;42646;51.910;7.724;2022-10-15T01:39:37;31.90;;;19.65;;
39264;SDS011;42646;51.910;7.724;2022-10-15T01:42:12;31.48;;;20.13;;
39264;SDS011;42646;51.910;7.724;2022-10-15T01:44:46;31.73;;;19.98;;
39264;SDS011;42646;51.910;7.724;2022-10-15T01:47:52;31.17;;;19.17;;
39264;SDS011;42646;51.910;7.724;2022-10-15T01:50:23;32.10;;;19.77;;
39264;SDS011;42646;51.910;7.724;2022-10-15T01:52:55;32.58;;;20.33;;
39264;SDS011;42646;51.910;7.724;2022-10-15T01:55:25;29.60;;;18.83;;
39264;SDS011;42646;51.910;7.724;2022-10-15T01:57:54;29.95;;;19.05;;
39264;SDS011;42646;51.910;7.724;2022-10-15T02:00:24;31.33;;;18.77;;
39264;SDS011;42646;51.910;7.724;2022-10-15T02:02:54;30.58;;;19.10;;
39264;SDS011;42646;51.910;7.724;2022-10-15T02:05:28;31.85;;;20.52;;
39264;SDS011;42646;51.910;7.724;2022-10-15T02:08:04;31.17;;;18.90;;
39264;SDS011;42646;51.910;7.724;2022-10-15T02:10:40;33.05;;;19.73;;
39264;SDS011;42646;51.910;7.724;2022-10-15T02:13:21;31.92;;;19.48;;
39264;SDS011;42646;51.910;7.724;2022-10-15T02:15:56;32.58;;;19.83;;
39264;SDS011;42646;51.910;7.724;2022-10-15T02:18:32;32.90;;;20.77;;
39264;SDS011;42646;51.910;7.724;2022-10-15T02:21:07;34.83;;;19.98;;
39264;SDS011;42646;51.910;7.724;2022-10-15T02:23:40;32.10;;;20.52;;
39264;SDS011;42646;51.910;7.724;2022-10-15T02:26:13;32.03;;;19.13;;
39264;SDS011;42646;51.910;7.724;2022-10-15T02:28:44;31.45;;;20.40;;
39264;SDS011;42646;51.910;7.724;2022-10-15T02:31:14;31.20;;;19.98;;
39264;SDS011;42646;51.910;7.724;2022-10-15T02:33:46;31.80;;;19.65;;
39264;SDS011;42646;51.910;7.724;2022-10-15T02:36:15;32.38;;;19.90;;
39264;SDS011;42646;51.910;7.724;2022-10-15T02:38:45;32.53;;;20.60;;
39264;SDS011;42646;51.910;7.724;2022-10-15T02:41:14;31.83;;;19.75;;
39264;SDS011;42646;51.910;7.724;2022-10-15T02:43:45;33.45;;;20.25;;
39264;SDS011;42646;51.910;7.724;2022-10-15T02:46:13;33.47;;;20.70;;
39264;SDS011;42646;51.910;7.724;2022-10-15T02:48:45;34.53;;;20.40;;
39264;SDS011;42646;51.910;7.724;2022-10-15T02:51:16;34.03;;;21.10;;
39264;SDS011;42646;51.910;7.724;2022-10-15T02:53:44;34.38;;;20.85;;
39264;SDS011;42646;51.910;7.724;2022-10-15T02:56:11;36.25;;;21.73;;
39264;SDS011;42646;51.910;7.724;2022-10-15T02:58:39;35.88;;;21.80;;
39264;SDS011;42646;51.910;7.724;2022-10-15T03:01:07;37.58;;;22.15;;
39264;SDS011;42646;51.910;7.724;2022-10-15T03:03:35;33.10;;;21.63;;
39264;SDS011;42646;51.910;7.724;2022-10-15T03:06:05;36.50;;;21.65;;
39264;SDS011;42646;51.910;7.724;2022-10-15T03:08:33;36.92;;;22.25;;
39264;SDS011;42646;51.910;7.724;2022-10-15T03:11:02;34.50;;;21.42;;
39264;SDS011;42646;51.910;7.724;2022-10-15T03:13:30;38.80;;;22.90;;
39264;SDS011;42646;51.910;7.724;2022-10-15T03:16:03;35.53;;;21.23;;
39264;SDS011;42646;51.910;7.724;2022-10-15T03:18:32;35.97;;;21.50;;
39264;SDS011;42646;51.910;7.724;2022-10-15T03:21:08;36.05;;;21.98;;
39264;SDS011;42646;51.910;7.724;2022-10-15T03:23:37;36.03;;;21.20;;
39264;SDS011;42646;51.910;7.724;2022-10-15T03:26:11;35.90;;;21.85;;
39264;SDS011;42646;51.910;7.724;2022-10-15T03:28:40;35.13;;;21.13;;
39264;SDS011;42646;51.910;7.724;2022-10-15T03:31:11;34.57;;;21.03;;
39264;SDS011;42646;51.910;7.724;2022-10-15T03:33:42;34.90;;;20.90;;
39264;SDS011;42646;51.910;7.724;2022-10-15T03:36:11;33.58;;;20.42;;
39264;SDS011;42646;51.910;7.724;2022-10-15T03:38:39;31.88;;;20.58;;
39264;SDS011;42646;51.910;7.724;2022-10-15T03:41:11;35.33;;;19.85;;
39264;SDS011;42646;51.910;7.724;2022-10-15T03:43:39;30.02;;;18.80;;
39264;SDS011;42646;51.910;7.724;2022-10-15T03:46:09;33.55;;;20.55;;
39264;SDS011;42646;51.910;7.724;2022-10-15T03:48:41;34.50;;;20.10;;
39264;SDS011;42646;51.910;7.724;2022-10-15T03:51:12;32.75;;;19.55;;
39264;SDS011;42646;51.910;7.724;2022-10-15T03:53:51;34.42;;;19.95;;
39264;SDS011;42646;51.910;7.724;2022-10-15T03:56:19;33.63;;;20.20;;
39264;SDS011;42646;51.910;7.724;2022-10-15T03:58:47;36.08;;;21.40;;
39264;SDS011;42646;51.910;7.724;2022-10-15T04:01:16;30.77;;;19.38;;
39264;SDS011;42646;51.910;7.724;2022-10-15T04:03:44;34.15;;;20.15;;
39264;SDS011;42646;51.910;7.724;2022-10-15T04:06:17;34.22;;;21.13;;
39264;SDS011;42646;51.910;7.724;2022-10-15T04:08:44;33.70;;;20.45;;
39264;SDS011;42646;51.910;7.724;2022-10-15T04:11:19;33.25;;;21.00;;
39264;SDS011;42646;51.910;7.724;2022-10-15T04:13:56;35.17;;;20.33;;
39264;SDS011;42646;51.910;7.724;2022-10-15T04:16:24;33.90;;;20.67;;
39264;SDS011;42646;51.910;7.724;2022-10-15T04:18:51;31.55;;;19.90;;
39264;SDS011;42646;51.910;7.724;2022-10-15T04:21:21;30.70;;;19.55;;
39264;SDS011;42646;51.910;7.724;2022-10-15T04:23:54;34.90;;;20.58;;
39264;SDS011;42646;51.910;7.724;2022-10-15T04:26:28;34.28;;;20.38;;
39264;SDS011;42646;51.910;7.724;2022-10-15T04:28:58;33.17;;;20.75;;
39264;SDS011;42646;51.910;7.724;2022-10-15T04:31:27;31.50;;;19.35;;
39264;SDS011;42646;51.910;7.724;2022-10-15T04:33:55;30.70;;;19.98;;
39264;SDS011;42646;51.910;7.724;2022-10-15T04:36:25;31.85;;;20.45;;
39264;SDS011;42646;51.910;7.724;2022-10-15T04:38:58;31.80;;;19.92;;
39264;SDS011;42646;51.910;7.724;2022-10-15T04:41:35;32.10;;;19.70;;
39264;SDS011;42646;51.910;7.724;2022-10-15T04:44:06;31.77;;;20.38;;
39264;SDS011;42646;51.910;7.724;2022-10-15T04:46:36;32.47;;;19.88;;
39264;SDS011;42646;51.910;7.724;2022-10-15T04:49:21;34.72;;;21.58;;
39264;SDS011;42646;51.910;7.724;2022-10-15T04:51:50;36.03;;;21.85;;
39264;SDS011;42646;51.910;7.724;2022-10-15T04:54:27;34.58;;;21.38;;
39264;SDS011;42646;51.910;7.724;2022-10-15T04:57:01;34.10;;;20.77;;
39264;SDS011;42646;51.910;7.724;2022-10-15T04:59:29;34.40;;;21.77;;
39264;SDS011;42646;51.910;7.724;2022-10-15T05:02:16;38.78;;;22.90;;
39264;SDS011;42646;51.910;7.724;2022-10-15T05:04:48;40.75;;;23.13;;
39264;SDS011;42646;51.910;7.724;2022-10-15T05:07:17;36.13;;;21.95;;
39264;SDS011;42646;51.910;7.724;2022-10-15T05:09:46;37.65;;;22.27;;
39264;SDS011;42646;51.910;7.724;2022-10-15T05:12:14;40.08;;;23.35;;
39264;SDS011;42646;51.910;7.724;2022-10-15T05:14:41;42.25;;;24.42;;
39264;SDS011;42646;51.910;7.724;2022-10-15T05:17:16;40.08;;;22.60;;
39264;SDS011;42646;51.910;7.724;2022-10-15T05:19:44;40.00;;;24.10;;
39264;SDS011;42646;51.910;7.724;2022-10-15T05:22:18;40.75;;;23.52;;
39264;SDS011;42646;51.910;7.724;2022-10-15T05:24:50;41.58;;;23.58;;
39264;SDS011;42646;51.910;7.724;2022-10-15T05:27:27;43.42;;;24.02;;
39264;SDS011;42646;51.910;7.724;2022-10-15T05:29:55;44.75;;;23.92;;
39264;SDS011;42646;51.910;7.724;2022-10-15T05:32:29;41.08;;;22.33;;
39264;SDS011;42646;51.910;7.724;2022-10-15T05:34:57;40.95;;;22.38;;
39264;SDS011;42646;51.910;7.724;2022-10-15T05:37:38;38.45;;;21.63;;
39264;SDS011;42646;51.910;7.724;2022-10-15T05:40:07;41.85;;;23.45;;
39264;SDS011;42646;51.910;7.724;2022-10-15T05:42:35;38.90;;;22.15;;
39264;SDS011;42646;51.910;7.724;2022-10-15T05:45:05;41.25;;;24.08;;
39264;SDS011;42646;51.910;7.724;2022-10-15T05:47:33;41.17;;;22.83;;
39264;SDS011;42646;51.910;7.724;2022-10-15T05:50:14;39.45;;;22.67;;
39264;SDS011;42646;51.910;7.724;2022-10-15T05:52:47;45.53;;;24.90;;
39264;SDS011;42646;51.910;7.724;2022-10-15T05:55:24;43.08;;;24.38;;
39264;SDS011;42646;51.910;7.724;2022-10-15T05:57:52;44.70;;;25.52;;
39264;SDS011;42646;51.910;7.724;2022-10-15T06:00:19;43.20;;;23.90;;
39264;SDS011;42646;51.910;7.724;2022-10-15T06:02:50;41.97;;;23.75;;
39264;SDS011;42646;51.910;7.724;2022-10-15T06:05:24;46.05;;;25.50;;
39264;SDS011;42646;51.910;7.724;2022-10-15T06:07:53;45.15;;;25.10;;
39264;SDS011;42646;51.910;7.724;2022-10-15T06:10:20;43.30;;;24.75;;
39264;SDS011;42646;51.910;7.724;2022-10-15T06:12:49;48.00;;;25.77;;
39264;SDS011;42646;51.910;7.724;2022-10-15T06:15:17;48.90;;;27.23;;
39264;SDS011;42646;51.910;7.724;2022-10-15T06:17:45;49.95;;;27.08;;
39264;SDS011;42646;51.910;7.724;2022-10-15T06:20:12;53.00;;;28.55;;
39264;SDS011;42646;51.910;7.724;2022-10-15T06:22:40;51.97;;;27.38;;
39264;SDS011;42646;51.910;7.724;2022-10-15T06:25:09;49.42;;;28.08;;
39264;SDS011;42646;51.910;7.724;2022-10-15T06:27:37;50.58;;;28.40;;
39264;SDS011;42646;51.910;7.724;2022-10-15T06:30:05;56.45;;;30.30;;
39264;SDS011;42646;51.910;7.724;2022-10-15T06:32:34;58.63;;;32.55;;
39264;SDS011;42646;51.910;7.724;2022-10-15T06:35:01;58.47;;;32.33;;
39264;SDS011;42646;51.910;7.724;2022-10-15T06:37:31;59.40;;;32.10;;
39264;SDS011;42646;51.910;7.724;2022-10-15T06:39:59;58.38;;;31.65;;
39264;SDS011;42646;51.910;7.724;2022-10-15T06:42:28;58.60;;;31.83;;
39264;SDS011;42646;51.910;7.724;2022-10-15T06:44:56;51.47;;;30.45;;
39264;SDS011;42646;51.910;7.724;2022-10-15T06:47:23;52.30;;;28.92;;
39264;SDS011;42646;51.910;7.724;2022-10-15T06:49:51;58.13;;;31.80;;
39264;SDS011;42646;51.910;7.724;2022-10-15T06:52:19;57.30;;;31.77;;
39264;SDS011;42646;51.910;7.724;2022-10-15T06:54:47;58.13;;;32.40;;
39264;SDS011;42646;51.910;7.724;2022-10-15T06:57:17;59.45;;;31.55;;
39264;SDS011;42646;51.910;7.724;2022-10-15T06:59:46;56.83;;;32.13;;
39264;SDS011;42646;51.910;7.724;2022-10-15T07:02:14;59.50;;;31.90;;
39264;SDS011;42646;51.910;7.724;2022-10-15T07:04:42;62.90;;;33.28;;
39264;SDS011;42646;51.910;7.724;2022-10-15T07:07:16;64.57;;;34.05;;
39264;SDS011;42646;51.910;7.724;2022-10-15T07:09:43;61.75;;;34.50;;
39264;SDS011;42646;51.910;7.724;2022-10-15T07:12:12;66.35;;;33.65;;
39264;SDS011;42646;51.910;7.724;2022-10-15T07:14:41;63.70;;;33.28;;
39264;SDS011;42646;51.910;7.724;2022-10-15T07:17:10;67.07;;;35.35;;
39264;SDS011;42646;51.910;7.724;2022-10-15T07:19:38;62.28;;;33.17;;
39264;SDS011;42646;51.910;7.724;2022-10-15T07:22:05;68.63;;;35.20;;
39264;SDS011;42646;51.910;7.724;2022-10-15T07:24:33;66.93;;;33.90;;
39264;SDS011;42646;51.910;7.724;2022-10-15T07:27:00;61.80;;;32.42;;
39264;SDS011;42646;51.910;7.724;2022-10-15T07:29:33;60.95;;;33.63;;
39264;SDS011;42646;51.910;7.724;2022-10-15T07:32:01;55.65;;;31.65;;
39264;SDS011;42646;51.910;7.724;2022-10-15T07:34:30;56.80;;;31.60;;
39264;SDS011;42646;51.910;7.724;2022-10-15T07:36:57;53.90;;;30.45;;
39264;SDS011;42646;51.910;7.724;2022-10-15T07:39:25;52.88;;;30.20;;
39264;SDS011;42646;51.910;7.724;2022-10-15T07:41:53;51.22;;;30.67;;
39264;SDS011;42646;51.910;7.724;2022-10-15T07:44:20;48.97;;;28.63;;
39264;SDS011;42646;51.910;7.724;2022-10-15T07:46:48;50.72;;;29.38;;
39264;SDS011;42646;51.910;7.724;2022-10-15T07:49:15;46.47;;;28.25;;
39264;SDS011;42646;51.910;7.724;2022-10-15T07:51:45;46.78;;;28.13;;
39264;SDS011;42646;51.910;7.724;2022-10-15T07:54:12;46.65;;;28.02;;
39264;SDS011;42646;51.910;7.724;2022-10-15T07:56:40;43.97;;;27.75;;
39264;SDS011;42646;51.910;7.724;2022-10-15T07:59:08;46.33;;;27.77;;
39264;SDS011;42646;51.910;7.724;2022-10-15T08:01:35;44.65;;;27.75;;
39264;SDS011;42646;51.910;7.724;2022-10-15T08:04:03;40.83;;;25.48;;
39264;SDS011;42646;51.910;7.724;2022-10-15T08:06:32;40.78;;;26.25;;
39264;SDS011;42646;51.910;7.724;2022-10-15T08:09:01;38.08;;;24.48;;
39264;SDS011;42646;51.910;7.724;2022-10-15T08:11:30;45.25;;;28.38;;
39264;SDS011;42646;51.910;7.724;2022-10-15T08:13:58;39.10;;;25.67;;
39264;SDS011;42646;51.910;7.724;2022-10-15T08:16:25;38.72;;;25.02;;
39264;SDS011;42646;51.910;7.724;2022-10-15T08:18:56;41.00;;;26.20;;
39264;SDS011;42646;51.910;7.724;2022-10-15T08:21:24;40.47;;;25.65;;
39264;SDS011;42646;51.910;7.724;2022-10-15T08:23:52;37.70;;;25.35;;
39264;SDS011;42646;51.910;7.724;2022-10-15T08:26:29;34.17;;;24.15;;
39264;SDS011;42646;51.910;7.724;2022-10-15T08:28:57;34.70;;;24.48;;
39264;SDS011;42646;51.910;7.724;2022-10-15T08:31:25;34.38;;;24.17;;
39264;SDS011;42646;51.910;7.724;2022-10-15T08:33:52;35.08;;;24.38;;
39264;SDS011;42646;51.910;7.724;2022-10-15T08:36:20;33.20;;;23.75;;
39264;SDS011;42646;51.910;7.724;2022-10-15T08:38:49;30.17;;;21.63;;
39264;SDS011;42646;51.910;7.724;2022-10-15T08:41:18;31.60;;;22.00;;
39264;SDS011;42646;51.910;7.724;2022-10-15T08:43:55;31.40;;;23.35;;
39264;SDS011;42646;51.910;7.724;2022-10-15T08:46:27;31.77;;;22.40;;
39264;SDS011;42646;51.910;7.724;2022-10-15T08:48:59;33.35;;;22.27;;
39264;SDS011;42646;51.910;7.724;2022-10-15T08:51:29;32.30;;;22.50;;
39264;SDS011;42646;51.910;7.724;2022-10-15T08:54:04;31.67;;;23.02;;
39264;SDS011;42646;51.910;7.724;2022-10-15T08:56:36;29.23;;;21.00;;
39264;SDS011;42646;51.910;7.724;2022-10-15T08:59:12;29.95;;;21.27;;
39264;SDS011;42646;51.910;7.724;2022-10-15T09:01:49;29.77;;;20.88;;
39264;SDS011;42646;51.910;7.724;2022-10-15T09:04:23;29.15;;;20.73;;
39264;SDS011;42646;51.910;7.724;2022-10-15T09:06:59;29.50;;;21.05;;
39264;SDS011;42646;51.910;7.724;2022-10-15T09:09:34;28.10;;;19.98;;
39264;SDS011;42646;51.910;7.724;2022-10-15T09:12:17;30.92;;;21.25;;
39264;SDS011;42646;51.910;7.724;2022-10-15T09:15:01;29.88;;;20.52;;
39264;SDS011;42646;51.910;7.724;2022-10-15T09:17:31;33.87;;;22.40;;
39264;SDS011;42646;51.910;7.724;2022-10-15T09:20:03;32.55;;;21.95;;
39264;SDS011;42646;51.910;7.724;2022-10-15T09:22:33;31.85;;;21.50;;
39264;SDS011;42646;51.910;7.724;2022-10-15T09:25:06;33.67;;;22.88;;
39264;SDS011;42646;51.910;7.724;2022-10-15T09:27:41;33.25;;;22.80;;
39264;SDS011;42646;51.910;7.724;2022-10-15T09:30:17;32.45;;;22.83;;
39264;SDS011;42646;51.910;7.724;2022-10-15T09:32:53;31.85;;;21.75;;
39264;SDS011;42646;51.910;7.724;2022-10-15T09:35:26;29.60;;;21.20;;
39264;SDS011;42646;51.910;7.724;2022-10-15T09:38:00;29.40;;;21.00;;
39264;SDS011;42646;51.910;7.724;2022-10-15T09:40:43;29.77;;;20.77;;
39264;SDS011;42646;51.910;7.724;2022-10-15T09:45:54;31.20;;;20.93;;
39264;SDS011;42646;51.910;7.724;2022-10-15T09:48:23;31.63;;;22.02;;
39264;SDS011;42646;51.910;7.724;2022-10-15T09:50:54;32.45;;;23.40;;
39264;SDS011;42646;51.910;7.724;2022-10-15T09:53:27;29.83;;;21.52;;
39264;SDS011;42646;51.910;7.724;2022-10-15T09:56:08;35.53;;;25.10;;
39264;SDS011;42646;51.910;7.724;2022-10-15T09:58:41;32.40;;;23.33;;
39264;SDS011;42646;51.910;7.724;2022-10-15T10:01:18;32.63;;;22.60;;
39264;SDS011;42646;51.910;7.724;2022-10-15T10:03:49;28.23;;;21.05;;
39264;SDS011;42646;51.910;7.724;2022-10-15T10:06:19;26.30;;;19.85;;
39264;SDS011;42646;51.910;7.724;2022-10-15T10:08:50;26.90;;;19.95;;
39264;SDS011;42646;51.910;7.724;2022-10-15T10:11:21;27.15;;;19.58;;
39264;SDS011;42646;51.910;7.724;2022-10-15T10:13:51;26.02;;;18.85;;
39264;SDS011;42646;51.910;7.724;2022-10-15T10:16:22;22.52;;;17.35;;
39264;SDS011;42646;51.910;7.724;2022-10-15T10:19:01;23.23;;;16.58;;
39264;SDS011;42646;51.910;7.724;2022-10-15T10:21:32;22.30;;;16.35;;
39264;SDS011;42646;51.910;7.724;2022-10-15T10:26:45;17.95;;;13.55;;
39264;SDS011;42646;51.910;7.724;2022-10-15T10:29:15;20.15;;;13.32;;
39264;SDS011;42646;51.910;7.724;2022-10-15T10:32:00;18.65;;;12.85;;
39264;SDS011;42646;51.910;7.724;2022-10-15T10:34:36;17.60;;;12.52;;
39264;SDS011;42646;51.910;7.724;2022-10-15T10:37:04;18.30;;;12.30;;
39264;SDS011;42646;51.910;7.724;2022-10-15T10:39:33;17.20;;;12.70;;
39264;SDS011;42646;51.910;7.724;2022-10-15T10:42:03;18.75;;;12.57;;
39264;SDS011;42646;51.910;7.724;2022-10-15T10:44:33;16.35;;;12.60;;
39264;SDS011;42646;51.910;7.724;2022-10-15T10:47:11;18.65;;;12.75;;
39264;SDS011;42646;51.910;7.724;2022-10-15T10:49:41;14.57;;;11.15;;
39264;SDS011;42646;51.910;7.724;2022-10-15T10:52:17;13.35;;;10.25;;
39264;SDS011;42646;51.910;7.724;2022-10-15T10:54:47;11.55;;;8.98;;
39264;SDS011;42646;51.910;7.724;2022-10-15T10:57:25;9.45;;;7.55;;
39264;SDS011;42646;51.910;7.724;2022-10-15T10:59:58;10.63;;;7.70;;
39264;SDS011;42646;51.910;7.724;2022-10-15T11:02:31;8.43;;;6.72;;
39264;SDS011;42646;51.910;7.724;2022-10-15T11:05:01;8.32;;;6.57;;
39264;SDS011;42646;51.910;7.724;2022-10-15T11:07:30;7.60;;;6.22;;
39264;SDS011;42646;51.910;7.724;2022-10-15T11:10:09;7.82;;;6.00;;
39264;SDS011;42646;51.910;7.724;2022-10-15T11:15:35;6.80;;;5.00;;
39264;SDS011;42646;51.910;7.724;2022-10-15T11:18:20;6.43;;;4.88;;
39264;SDS011;42646;51.910;7.724;2022-10-15T11:20:58;5.18;;;4.30;;
39264;SDS011;42646;51.910;7.724;2022-10-15T11:23:38;5.70;;;4.60;;
39264;SDS011;42646;51.910;7.724;2022-10-15T11:26:21;5.07;;;3.88;;
39264;SDS011;42646;51.910;7.724;2022-10-15T11:29:22;5.95;;;4.15;;
39264;SDS011;42646;51.910;7.724;2022-10-15T11:32:02;5.30;;;3.70;;
39264;SDS011;42646;51.910;7.724;2022-10-15T11:34:45;5.03;;;3.30;;
39264;SDS011;42646;51.910;7.724;2022-10-15T11:37:26;4.40;;;2.97;;
39264;SDS011;42646;51.910;7.724;2022-10-15T11:40:13;4.05;;;2.78;;
39264;SDS011;42646;51.910;7.724;2022-10-15T11:42:50;3.60;;;2.60;;
39264;SDS011;42646;51.910;7.724;2022-10-15T11:45:28;5.55;;;2.40;;
39264;SDS011;42646;51.910;7.724;2022-10-15T11:48:12;3.28;;;2.00;;
39264;SDS011;42646;51.910;7.724;2022-10-15T11:50:50;3.17;;;2.20;;
39264;SDS011;42646;51.910;7.724;2022-10-15T11:53:28;2.60;;;1.80;;
39264;SDS011;42646;51.910;7.724;2022-10-15T11:56:11;4.47;;;1.70;;
39264;SDS011;42646;51.910;7.724;2022-10-15T11:58:44;4.22;;;1.60;;
39264;SDS011;42646;51.910;7.724;2022-10-15T12:01:17;2.97;;;1.60;;
39264;SDS011;42646;51.910;7.724;2022-10-15T12:03:50;2.75;;;1.70;;
39264;SDS011;42646;51.910;7.724;2022-10-15T12:08:52;2.08;;;1.35;;
39264;SDS011;42646;51.910;7.724;2022-10-15T12:11:26;3.25;;;1.40;;
39264;SDS011;42646;51.910;7.724;2022-10-15T12:14:04;1.75;;;1.23;;
39264;SDS011;42646;51.910;7.724;2022-10-15T12:16:45;2.65;;;1.48;;
39264;SDS011;42646;51.910;7.724;2022-10-15T12:19:25;1.92;;;1.30;;
39264;SDS011;42646;51.910;7.724;2022-10-15T12:22:01;1.98;;;1.23;;
39264;SDS011;42646;51.910;7.724;2022-10-15T12:24:53;2.28;;;1.33;;
39264;SDS011;42646;51.910;7.724;2022-10-15T12:27:23;2.15;;;1.42;;
39264;SDS011;42646;51.910;7.724;2022-10-15T12:32:48;2.78;;;1.10;;
39264;SDS011;42646;51.910;7.724;2022-10-15T12:35:20;2.15;;;1.30;;
39264;SDS011;42646;51.910;7.724;2022-10-15T12:37:53;2.28;;;1.30;;
39264;SDS011;42646;51.910;7.724;2022-10-15T12:40:25;1.80;;;1.10;;
39264;SDS011;42646;51.910;7.724;2022-10-15T12:42:55;1.50;;;1.10;;
39264;SDS011;42646;51.910;7.724;2022-10-15T12:45:29;1.40;;;1.10;;
39264;SDS011;42646;51.910;7.724;2022-10-15T12:48:16;2.55;;;1.40;;
39264;SDS011;42646;51.910;7.724;2022-10-15T12:54:32;1.98;;;1.30;;
39264;SDS011;42646;51.910;7.724;2022-10-15T13:03:15;1.55;;;1.10;;
39264;SDS011;42646;51.910;7.724;2022-10-15T13:05:47;2.33;;;1.30;;
39264;SDS011;42646;51.910;7.724;2022-10-15T13:08:32;2.10;;;1.40;;
39264;SDS011;42646;51.910;7.724;2022-10-15T13:11:01;1.42;;;1.00;;
39264;SDS011;42646;51.910;7.724;2022-10-15T13:13:29;2.63;;;1.27;;
39264;SDS011;42646;51.910;7.724;2022-10-15T13:16:00;2.22;;;1.42;;
39264;SDS011;42646;51.910;7.724;2022-10-15T13:18:33;2.75;;;1.38;;
39264;SDS011;42646;51.910;7.724;2022-10-15T13:21:01;1.80;;;1.20;;
39264;SDS011;42646;51.910;7.724;2022-10-15T13:23:29;2.10;;;1.40;;
39264;SDS011;42646;51.910;7.724;2022-10-15T13:26:14;5.20;;;1.30;;
39264;SDS011;42646;51.910;7.724;2022-10-15T13:28:45;2.17;;;1.40;;
39264;SDS011;42646;51.910;7.724;2022-10-15T13:31:15;2.00;;;1.27;;
39264;SDS011;42646;51.910;7.724;2022-10-15T13:33:53;2.33;;;1.52;;
39264;SDS011;42646;51.910;7.724;2022-10-15T13:36:24;3.05;;;1.55;;
39264;SDS011;42646;51.910;7.724;2022-10-15T13:38:54;4.07;;;1.40;;
39264;SDS011;42646;51.910;7.724;2022-10-15T13:41:26;2.97;;;1.58;;
39264;SDS011;42646;51.910;7.724;2022-10-15T13:43:57;2.50;;;1.67;;
39264;SDS011;42646;51.910;7.724;2022-10-15T13:46:26;2.80;;;1.50;;
39264;SDS011;42646;51.910;7.724;2022-10-15T13:48:56;2.65;;;1.50;;
39264;SDS011;42646;51.910;7.724;2022-10-15T13:51:30;2.90;;;1.60;;
39264;SDS011;42646;51.910;7.724;2022-10-15T13:54:00;2.60;;;1.60;;
39264;SDS011;42646;51.910;7.724;2022-10-15T13:56:35;2.72;;;1.60;;
39264;SDS011;42646;51.910;7.724;2022-10-15T13:59:03;2.17;;;1.50;;
39264;SDS011;42646;51.910;7.724;2022-10-15T14:01:31;2.92;;;1.60;;
39264;SDS011;42646;51.910;7.724;2022-10-15T14:04:01;2.60;;;1.50;;
39264;SDS011;42646;51.910;7.724;2022-10-15T14:06:30;2.60;;;1.80;;
39264;SDS011;42646;51.910;7.724;2022-10-15T14:08:59;2.55;;;1.50;;
39264;SDS011;42646;51.910;7.724;2022-10-15T14:11:38;2.70;;;1.60;;
39264;SDS011;42646;51.910;7.724;2022-10-15T14:16:56;2.55;;;1.50;;
39264;SDS011;42646;51.910;7.724;2022-10-15T14:19:25;2.83;;;1.58;;
39264;SDS011;42646;51.910;7.724;2022-10-15T14:21:56;6.25;;;2.33;;
39264;SDS011;42646;51.910;7.724;2022-10-15T14:24:27;3.67;;;1.50;;
39264;SDS011;42646;51.910;7.724;2022-10-15T14:27:03;2.58;;;1.40;;
39264;SDS011;42646;51.910;7.724;2022-10-15T14:29:34;2.90;;;1.30;;
39264;SDS011;42646;51.910;7.724;2022-10-15T14:32:18;2.60;;;1.45;;
39264;SDS011;42646;51.910;7.724;2022-10-15T14:34:47;3.00;;;1.35;;
39264;SDS011;42646;51.910;7.724;2022-10-15T14:40:12;3.47;;;1.50;;
39264;SDS011;42646;51.910;7.724;2022-10-15T14:42:45;2.08;;;1.30;;
39264;SDS011;42646;51.910;7.724;2022-10-15T14:45:18;1.90;;;1.35;;
39264;SDS011;42646;51.910;7.724;2022-10-15T14:47:49;2.65;;;1.55;;
39264;SDS011;42646;51.910;7.724;2022-10-15T14:50:21;2.95;;;1.30;;
39264;SDS011;42646;51.910;7.724;2022-10-15T14:52:51;2.40;;;1.40;;
39264;SDS011;42646;51.910;7.724;2022-10-15T14:55:28;2.30;;;1.20;;
39264;SDS011;42646;51.910;7.724;2022-10-15T14:57:59;2.72;;;1.35;;
39264;SDS011;42646;51.910;7.724;2022-10-15T15:00:34;2.70;;;1.30;;
39264;SDS011;42646;51.910;7.724;2022-10-15T15:03:06;3.38;;;1.20;;
39264;SDS011;42646;51.910;7.724;2022-10-15T15:05:44;3.70;;;1.13;;
39264;SDS011;42646;51.910;7.724;2022-10-15T15:08:13;1.77;;;1.20;;
39264;SDS011;42646;51.910;7.724;2022-10-15T15:10:41;2.35;;;1.20;;
39264;SDS011;42646;51.910;7.724;2022-10-15T15:13:12;2.28;;;1.10;;
39264;SDS011;42646;51.910;7.724;2022-10-15T15:15:53;2.13;;;1.10;;
39264;SDS011;42646;51.910;7.724;2022-10-15T15:18:21;2.17;;;1.20;;
39264;SDS011;42646;51.910;7.724;2022-10-15T15:20:49;1.83;;;1.13;;
39264;SDS011;42646;51.910;7.724;2022-10-15T15:23:18;5.80;;;1.50;;
39264;SDS011;42646;51.910;7.724;2022-10-15T15:25:47;2.70;;;1.33;;
39264;SDS011;42646;51.910;7.724;2022-10-15T15:28:17;4.55;;;1.50;;
39264;SDS011;42646;51.910;7.724;2022-10-15T15:30:50;6.93;;;1.80;;